»·PEaware :: N612SB KSEA-KPDX

N612SB :: KSEA-KPDX

FLIGHT INFORMATION

Flight Status: Arrived
Operator: Privately registered:
United States
More flights under this callsign
Pilot: Clay B. (17061)
Aircraft: BOEING 737-300
(B733)
More flights by this aircraft type
Origin: KSEA Seattle-Tacoma Intl
United States
Destination: KPDX Portland Intl
United States
More flights between these airports :: More routes between these airports
Route: +SEA6 BUWZO KRATR2
File this flight plan on PilotEdge
Remarks: PBN / A1B3B4B5D3D4 DOF / 171201 REG / N372SB PER / C RMK / TCAS SIMBRIEF
Altitude:
(Current/Filed)
19,000ft
Speed:
(Current/Filed)
390kts
Departed: 01-Dec-17 01:13 PM
Arrived: 01-Dec-17 01:42 PM
Distance/Time
Traveled:
112nm/0:29
Distance/Time
To Go:
Arrived

Flight Plot

Page will automatically refresh every two minutes.

Flight plan parsing failed; only flown route is shown


Map Options




Map Legend


Flown Route
Filed Route
Departure Airport
Arrival Airport
Navaid (VOR, NDB)
Fix

Horizontal Profiles

Position Reports

Time Latitude Longitude Heading Altitude Ground
Speed
01-Dec-17 12:39 47.442153 -122.302206 45 380ft 0kts
01-Dec-17 12:40 47.442153 -122.302206 45 380ft 0kts
01-Dec-17 12:41 47.442153 -122.302206 45 380ft 0kts
01-Dec-17 12:42 47.442153 -122.302206 45 380ft 0kts
01-Dec-17 12:43 47.442153 -122.302206 45 380ft 0kts
01-Dec-17 12:44 47.442153 -122.302206 45 380ft 0kts
01-Dec-17 12:45 47.442153 -122.302206 45 380ft 0kts
01-Dec-17 12:46 47.442153 -122.302206 45 380ft 0kts
01-Dec-17 12:47 47.442153 -122.302206 45 380ft 0kts
01-Dec-17 12:48 47.442153 -122.302206 45 380ft 0kts
01-Dec-17 12:49 47.442153 -122.302206 45 380ft 0kts
01-Dec-17 12:50 47.442153 -122.302206 45 380ft 0kts
01-Dec-17 12:51 47.442153 -122.302206 45 380ft 0kts
01-Dec-17 12:52 47.442153 -122.302206 45 380ft 0kts
01-Dec-17 12:53 47.442153 -122.302206 45 380ft 0kts
01-Dec-17 12:54 47.442153 -122.302206 45 380ft 0kts
01-Dec-17 12:55 47.442153 -122.302206 45 380ft 0kts
01-Dec-17 12:56 47.442153 -122.302206 45 380ft 0kts
01-Dec-17 12:57 47.442153 -122.302206 45 380ft 0kts
01-Dec-17 12:58 47.442153 -122.302206 45 380ft 0kts
01-Dec-17 12:59 47.442153 -122.302206 45 380ft 0kts
01-Dec-17 13:00 47.442153 -122.302206 45 380ft 0kts
01-Dec-17 13:01 47.442153 -122.302206 45 380ft 0kts
01-Dec-17 13:02 47.442153 -122.302206 45 380ft 0kts
01-Dec-17 13:03 47.442153 -122.302206 45 380ft 0kts
01-Dec-17 13:04 47.442153 -122.302206 45 380ft 0kts
01-Dec-17 13:05 47.442153 -122.302206 45 380ft 0kts
01-Dec-17 13:06 47.441978 -122.302467 45 380ft 3kts
01-Dec-17 13:07 47.441596 -122.302888 146 380ft 7kts
01-Dec-17 13:08 47.439902 -122.303768 266 374ft 0kts
01-Dec-17 13:09 47.439874 -122.304472 273 374ft 0kts
01-Dec-17 13:10 47.439874 -122.304472 273 374ft 0kts
01-Dec-17 13:11 47.439875 -122.304496 273 374ft 1kts
01-Dec-17 13:12 47.441266 -122.306356 0 377ft 15kts
01-Dec-17 13:13 47.445896 -122.306299 1 393ft 24kts
01-Dec-17 13:14 47.453393 -122.306223 0 425ft 22kts
01-Dec-17 13:15 47.461430 -122.306147 0 428ft 20kts
01-Dec-17 13:16 47.463695 -122.306448 304 412ft 0kts
01-Dec-17 13:17 47.462689 -122.307731 181 411ft 21kts
01-Dec-17 13:18 47.429401 -122.307975 176 1739ft 162kts
01-Dec-17 13:19 47.377153 -122.304476 176 3977ft 213kts
01-Dec-17 13:20 47.311836 -122.297993 178 6740ft 248kts
01-Dec-17 13:21 47.243128 -122.291674 185 9792ft 257kts
01-Dec-17 13:22 47.164232 -122.297224 188 11678ft 308kts
01-Dec-17 13:23 47.077798 -122.302374 188 14437ft 321kts
01-Dec-17 13:24 46.991221 -122.307399 188 16684ft 338kts
01-Dec-17 13:25 46.896275 -122.309633 187 18707ft 358kts
01-Dec-17 13:26 46.795450 -122.309515 187 19086ft 372kts
01-Dec-17 13:27 46.692541 -122.309474 187 19094ft 372kts
01-Dec-17 13:28 46.590024 -122.309445 187 19096ft 372kts
01-Dec-17 13:29 46.490088 -122.309394 188 19140ft 332kts
01-Dec-17 13:30 46.409988 -122.309268 190 19140ft 261kts
01-Dec-17 13:31 46.325607 -122.309800 186 17203ft 363kts
01-Dec-17 13:32 46.227123 -122.327657 205 13805ft 359kts
01-Dec-17 13:33 46.135617 -122.377498 203 10844ft 352kts
01-Dec-17 13:34 46.051761 -122.423343 203 10013ft 286kts
01-Dec-17 13:35 45.983014 -122.460386 202 10014ft 263kts
01-Dec-17 13:36 45.913077 -122.498849 206 8993ft 283kts
01-Dec-17 13:37 45.844390 -122.486799 143 8377ft 308kts
01-Dec-17 13:38 45.766654 -122.439093 165 6460ft 304kts
01-Dec-17 13:39 45.689653 -122.412039 168 5986ft 279kts
01-Dec-17 13:40 45.614471 -122.384632 146 4984ft 286kts
01-Dec-17 13:41 45.569007 -122.293282 129 3171ft 283kts
01-Dec-17 13:42 45.510097 -122.298617 247 3048ft 234kts
01-Dec-17 13:43 45.510692 -122.385269 279 2887ft 215kts
01-Dec-17 13:44 45.539994 -122.455980 300 2082ft 206kts
01-Dec-17 13:45 45.565334 -122.520842 298 897ft 168kts
01-Dec-17 13:46 45.584247 -122.568593 300 63ft 126kts
01-Dec-17 13:47 45.590285 -122.585878 269 36ft 0kts
01-Dec-17 13:48 45.590313 -122.588222 267 36ft 0kts
01-Dec-17 13:49 45.590345 -122.589452 289 36ft 13kts
01-Dec-17 13:50 45.592455 -122.595163 234 36ft 3kts
01-Dec-17 13:51 45.591877 -122.596036 241 36ft 0kts
01-Dec-17 13:52 45.591877 -122.596036 241 36ft 0kts
01-Dec-17 13:53 45.591877 -122.596036 241 36ft 0kts
01-Dec-17 13:54 45.591877 -122.596036 241 36ft 0kts
01-Dec-17 13:55 45.591877 -122.596036 241 36ft 0kts

Navigation Log

Ident Type
Flight plan parsing failed, navigation log unavailable